Time;durP1;ratioP1;P1;durP2;ratioP2;P2;SDS_P1;SDS_P2;PMS_P1;PMS_P2;Temp;Humidity;BMP_temperature;BMP_pressure;BME280_temperature;BME280_humidity;BME280_pressure;Samples;Min_cycle;Max_cycle;Signal;HPM_P1;HPM_P2
2022/03/08 00:01:18;;;;;;;33.53;18.60;;;;;;;;;;5014428;28;20456;-69
2022/03/08 00:03:49;;;;;;;32.42;18.58;;;;;;;;;;5012808;28;20096;-69
2022/03/08 00:06:19;;;;;;;31.23;18.15;;;;;;;;;;5012440;28;20073;-69
2022/03/08 00:08:52;;;;;;;33.90;18.25;;;;;;;;;;5013994;28;20493;-69
2022/03/08 00:11:24;;;;;;;31.52;17.65;;;;;;;;;;5012639;28;20450;-68
2022/03/08 00:13:53;;;;;;;31.35;17.92;;;;;;;;;;5013718;28;20532;-69
2022/03/08 00:16:46;;;;;;;32.13;18.80;;;;;;;;;;5012462;28;20042;-69
2022/03/08 00:19:15;;;;;;;30.33;17.48;;;;;;;;;;5028585;28;20560;-70
2022/03/08 00:21:44;;;;;;;32.35;18.20;;;;;;;;;;5013530;28;20053;-69
2022/03/08 00:24:17;;;;;;;28.67;17.13;;;;;;;;;;5013351;28;20555;-69
2022/03/08 00:26:44;;;;;;;30.02;17.13;;;;;;;;;;5011834;28;20050;-69
2022/03/08 00:29:38;;;;;;;33.63;18.00;;;;;;;;;;5013679;28;20038;-69
2022/03/08 00:32:07;;;;;;;32.83;18.20;;;;;;;;;;5013788;28;20480;-70
2022/03/08 00:34:35;;;;;;;32.67;18.45;;;;;;;;;;5012613;28;20042;-70
2022/03/08 00:37:07;;;;;;;33.80;17.75;;;;;;;;;;5012276;28;20050;-70
2022/03/08 00:39:39;;;;;;;31.92;18.13;;;;;;;;;;5013665;28;20092;-69
2022/03/08 00:42:31;;;;;;;29.40;17.10;;;;;;;;;;5013336;28;20541;-69
2022/03/08 00:45:07;;;;;;;31.17;17.55;;;;;;;;;;5013808;28;20492;-69
2022/03/08 00:51:32;;;;;;;31.70;17.17;;;;;;;;;;5012699;28;20149;-69
2022/03/08 00:54:01;;;;;;;30.05;17.75;;;;;;;;;;5011667;28;20555;-69
2022/03/08 00:56:33;;;;;;;30.00;16.60;;;;;;;;;;5012761;28;20508;-68
2022/03/08 00:59:04;;;;;;;30.17;17.08;;;;;;;;;;5028497;28;20539;-68
2022/03/08 01:01:32;;;;;;;32.20;17.40;;;;;;;;;;5013833;28;20120;-69
2022/03/08 01:04:02;;;;;;;28.83;16.80;;;;;;;;;;5016088;28;20037;-69
2022/03/08 01:06:33;;;;;;;31.20;17.52;;;;;;;;;;5017294;28;20041;-69
2022/03/08 01:09:04;;;;;;;29.65;16.73;;;;;;;;;;5016106;28;20069;-69
2022/03/08 01:11:36;;;;;;;28.08;16.08;;;;;;;;;;5016876;28;20041;-69
2022/03/08 01:14:10;;;;;;;30.67;17.02;;;;;;;;;;5015954;28;20125;-69
2022/03/08 01:16:38;;;;;;;31.63;16.98;;;;;;;;;;5016716;28;20052;-69
2022/03/08 01:19:13;;;;;;;30.50;17.20;;;;;;;;;;5015984;28;20493;-69
2022/03/08 01:21:41;;;;;;;30.95;16.55;;;;;;;;;;5016948;28;20081;-69
2022/03/08 01:24:14;;;;;;;30.27;16.13;;;;;;;;;;5016305;28;20065;-69
2022/03/08 01:26:49;;;;;;;32.03;17.00;;;;;;;;;;5015570;28;20057;-69
2022/03/08 01:29:18;;;;;;;31.88;16.70;;;;;;;;;;5016818;28;20096;-69
2022/03/08 01:31:49;;;;;;;27.77;16.45;;;;;;;;;;5015537;28;20049;-69
2022/03/08 01:34:24;;;;;;;29.55;17.55;;;;;;;;;;5017065;28;20046;-69
2022/03/08 01:36:52;;;;;;;29.33;16.63;;;;;;;;;;5031689;28;20053;-69
2022/03/08 01:39:23;;;;;;;34.83;19.05;;;;;;;;;;5016106;28;20048;-69
2022/03/08 01:42:19;;;;;;;30.30;18.08;;;;;;;;;;5031813;28;20476;-69
2022/03/08 01:44:48;;;;;;;32.35;18.60;;;;;;;;;;5031684;28;20120;-68
2022/03/08 01:47:16;;;;;;;32.88;18.63;;;;;;;;;;5016371;28;20045;-69
2022/03/08 01:49:47;;;;;;;30.27;18.15;;;;;;;;;;5015091;28;20077;-69
2022/03/08 01:52:15;;;;;;;33.67;18.98;;;;;;;;;;5014983;28;20132;-69
2022/03/08 01:54:46;;;;;;;34.58;19.58;;;;;;;;;;5015281;28;20077;-69
2022/03/08 01:57:23;;;;;;;36.17;19.13;;;;;;;;;;5015191;28;20046;-69
2022/03/08 01:59:54;;;;;;;36.75;19.73;;;;;;;;;;5016123;28;20045;-69
2022/03/08 02:02:23;;;;;;;39.58;21.35;;;;;;;;;;5031414;28;20052;-69
2022/03/08 02:04:57;;;;;;;38.45;20.83;;;;;;;;;;5031351;28;20050;-69
2022/03/08 02:07:27;;;;;;;38.38;20.98;;;;;;;;;;5015800;28;20068;-69
2022/03/08 02:09:56;;;;;;;39.17;21.08;;;;;;;;;;5016094;28;20060;-69
2022/03/08 02:12:26;;;;;;;39.33;20.00;;;;;;;;;;5015832;28;20046;-69
2022/03/08 02:14:58;;;;;;;40.50;21.90;;;;;;;;;;5015440;28;20037;-69
2022/03/08 02:17:26;;;;;;;40.80;21.67;;;;;;;;;;5016055;28;20038;-69
2022/03/08 02:20:18;;;;;;;39.00;20.73;;;;;;;;;;5014469;28;20038;-69
2022/03/08 02:22:49;;;;;;;41.10;20.65;;;;;;;;;;5030835;28;20057;-69
2022/03/08 02:25:19;;;;;;;41.42;20.27;;;;;;;;;;5015905;28;20046;-69
2022/03/08 02:27:50;;;;;;;38.95;19.80;;;;;;;;;;5014434;28;20042;-70
2022/03/08 02:30:24;;;;;;;39.00;20.85;;;;;;;;;;5015684;28;20377;-69
2022/03/08 02:32:59;;;;;;;37.30;20.05;;;;;;;;;;5014285;28;20134;-69
2022/03/08 02:35:31;;;;;;;36.00;19.65;;;;;;;;;;5015489;28;20508;-69
2022/03/08 02:41:28;;;;;;;37.65;20.02;;;;;;;;;;5014153;28;20037;-69
2022/03/08 02:43:56;;;;;;;35.30;18.90;;;;;;;;;;5013053;28;20571;-69
2022/03/08 02:46:34;;;;;;;39.10;18.95;;;;;;;;;;5015346;28;20408;-70
2022/03/08 02:49:28;;;;;;;34.25;18.38;;;;;;;;;;5015082;28;20118;-70
2022/03/08 02:52:21;;;;;;;36.95;19.48;;;;;;;;;;5015402;28;20077;-70
2022/03/08 02:55:14;;;;;;;38.47;19.55;;;;;;;;;;5013563;28;20466;-69
2022/03/08 02:58:07;;;;;;;38.97;20.45;;;;;;;;;;5030733;28;20056;-69
2022/03/08 03:01:00;;;;;;;38.83;19.70;;;;;;;;;;5013981;28;20173;-69
2022/03/08 03:03:52;;;;;;;42.10;20.80;;;;;;;;;;5014830;28;20053;-69
2022/03/08 03:06:24;;;;;;;39.22;20.25;;;;;;;;;;5015041;28;20489;-69
2022/03/08 03:08:51;;;;;;;44.45;23.65;;;;;;;;;;5013551;28;20076;-69
2022/03/08 03:11:44;;;;;;;37.50;19.95;;;;;;;;;;5013789;28;20409;-69
2022/03/08 03:14:14;;;;;;;41.30;20.48;;;;;;;;;;5014620;28;20088;-69
2022/03/08 03:16:43;;;;;;;41.05;20.77;;;;;;;;;;5013419;28;20045;-69
2022/03/08 03:19:14;;;;;;;36.78;19.15;;;;;;;;;;5014587;28;20117;-69
2022/03/08 03:21:42;;;;;;;36.22;19.10;;;;;;;;;;5014821;28;20108;-69
2022/03/08 03:24:34;;;;;;;40.78;20.75;;;;;;;;;;5014149;28;20056;-69
2022/03/08 03:27:04;;;;;;;38.17;19.20;;;;;;;;;;5014439;28;20045;-70
2022/03/08 03:29:32;;;;;;;42.28;21.08;;;;;;;;;;5013528;28;20125;-69
2022/03/08 03:32:02;;;;;;;36.42;19.70;;;;;;;;;;5014445;28;20042;-70
2022/03/08 03:34:33;;;;;;;38.15;20.45;;;;;;;;;;5013012;28;20132;-69
2022/03/08 03:37:05;;;;;;;40.75;21.08;;;;;;;;;;5013331;28;20472;-69
2022/03/08 03:39:32;;;;;;;38.58;20.27;;;;;;;;;;5013634;28;20038;-69
2022/03/08 03:42:00;;;;;;;40.08;20.83;;;;;;;;;;5013119;28;20050;-69
2022/03/08 03:44:30;;;;;;;43.70;21.90;;;;;;;;;;5014074;28;20072;-69
2022/03/08 03:46:57;;;;;;;47.75;23.92;;;;;;;;;;5012749;28;20141;-69
2022/03/08 03:49:27;;;;;;;48.28;23.98;;;;;;;;;;5014416;28;20468;-69
2022/03/08 03:51:57;;;;;;;48.80;23.83;;;;;;;;;;4996835;28;20049;-69
2022/03/08 03:54:26;;;;;;;46.42;24.42;;;;;;;;;;5012646;28;20053;-68
2022/03/08 03:56:56;;;;;;;44.13;24.10;;;;;;;;;;4996741;28;20109;-70
2022/03/08 03:59:25;;;;;;;46.33;23.50;;;;;;;;;;5012846;28;20061;-69
2022/03/08 04:01:53;;;;;;;42.80;22.73;;;;;;;;;;5012684;28;20045;-69
2022/03/08 04:04:24;;;;;;;43.78;23.33;;;;;;;;;;5012496;28;20110;-68
2022/03/08 04:06:53;;;;;;;41.90;21.65;;;;;;;;;;5012722;28;20046;-69
2022/03/08 04:09:23;;;;;;;40.58;20.98;;;;;;;;;;5012441;28;20068;-69
2022/03/08 04:11:54;;;;;;;40.08;21.08;;;;;;;;;;5012512;28;20045;-69
2022/03/08 04:14:22;;;;;;;44.33;22.67;;;;;;;;;;5028734;28;20488;-69
2022/03/08 04:16:51;;;;;;;47.40;23.30;;;;;;;;;;5013540;28;20038;-69
2022/03/08 04:19:24;;;;;;;52.40;23.92;;;;;;;;;;5013663;28;20050;-69
2022/03/08 04:21:52;;;;;;;54.67;25.77;;;;;;;;;;5013556;28;20057;-69
2022/03/08 04:24:25;;;;;;;51.03;25.80;;;;;;;;;;5013579;28;20056;-69
2022/03/08 04:26:55;;;;;;;45.33;22.88;;;;;;;;;;5013524;28;20069;-69
2022/03/08 04:29:24;;;;;;;50.00;25.38;;;;;;;;;;5028723;28;20049;-69
2022/03/08 04:31:55;;;;;;;50.25;25.88;;;;;;;;;;5012241;28;20038;-69
2022/03/08 04:34:29;;;;;;;48.75;25.33;;;;;;;;;;5012149;28;20065;-69
2022/03/08 04:36:58;;;;;;;51.20;25.38;;;;;;;;;;5013350;28;20042;-69
2022/03/08 04:39:28;;;;;;;50.88;25.83;;;;;;;;;;5011973;28;20437;-69
2022/03/08 04:42:00;;;;;;;53.22;26.30;;;;;;;;;;5012330;28;20507;-69
2022/03/08 04:44:29;;;;;;;50.28;24.83;;;;;;;;;;5012402;28;20400;-69
2022/03/08 04:46:59;;;;;;;50.28;25.35;;;;;;;;;;5013510;28;20073;-69
2022/03/08 04:49:33;;;;;;;44.50;22.25;;;;;;;;;;5012113;28;20137;-69
2022/03/08 04:52:03;;;;;;;49.17;23.30;;;;;;;;;;5012047;28;20129;-72
2022/03/08 04:54:32;;;;;;;44.00;21.35;;;;;;;;;;5012975;28;20121;-73
2022/03/08 04:57:02;;;;;;;43.97;21.60;;;;;;;;;;5013111;28;20098;-72
2022/03/08 04:59:32;;;;;;;46.40;22.05;;;;;;;;;;5012058;28;20066;-72
2022/03/08 05:02:01;;;;;;;48.30;22.73;;;;;;;;;;5013183;28;20041;-72
2022/03/08 05:04:55;;;;;;;53.03;24.55;;;;;;;;;;5011906;28;20100;-72
2022/03/08 05:07:25;;;;;;;56.75;24.95;;;;;;;;;;5028319;28;20038;-72
2022/03/08 05:09:52;;;;;;;57.83;26.45;;;;;;;;;;5012912;28;20121;-72
2022/03/08 05:12:23;;;;;;;58.47;26.98;;;;;;;;;;5011972;28;20057;-72
2022/03/08 05:14:54;;;;;;;49.90;22.48;;;;;;;;;;5012920;28;20133;-73
2022/03/08 05:17:22;;;;;;;63.47;27.33;;;;;;;;;;5011611;28;20046;-73
2022/03/08 05:20:02;;;;;;;62.58;27.23;;;;;;;;;;5011781;28;20065;-73
2022/03/08 05:22:56;;;;;;;55.65;25.42;;;;;;;;;;5012603;28;20046;-73
2022/03/08 05:25:30;;;;;;;51.00;23.48;;;;;;;;;;5012672;28;20058;-73
2022/03/08 05:27:58;;;;;;;39.92;20.83;;;;;;;;;;5011287;28;20049;-73
2022/03/08 05:30:26;;;;;;;34.20;19.90;;;;;;;;;;5026798;28;20049;-73
2022/03/08 05:32:57;;;;;;;27.58;16.20;;;;;;;;;;5012730;28;20125;-72
2022/03/08 05:35:30;;;;;;;34.05;19.48;;;;;;;;;;5013100;28;20489;-72
2022/03/08 05:38:20;;;;;;;36.97;21.55;;;;;;;;;;5012751;28;20042;-73
2022/03/08 05:40:47;;;;;;;29.17;16.23;;;;;;;;;;5011516;28;20077;-72
2022/03/08 05:43:41;;;;;;;39.35;22.80;;;;;;;;;;5027705;28;20054;-73
2022/03/08 05:46:12;;;;;;;44.85;23.00;;;;;;;;;;5011324;28;20559;-73
2022/03/08 05:48:39;;;;;;;42.75;21.95;;;;;;;;;;5012669;28;20042;-74
2022/03/08 05:54:07;;;;;;;48.63;25.65;;;;;;;;;;5012076;28;20034;-73
2022/03/08 05:56:35;;;;;;;50.28;27.67;;;;;;;;;;5011060;28;20042;-73
2022/03/08 05:59:03;;;;;;;41.85;21.58;;;;;;;;;;5003428;28;20400;-73
2022/03/08 06:01:33;;;;;;;52.65;27.42;;;;;;;;;;5014987;28;20382;-73
2022/03/08 06:04:01;;;;;;;63.08;28.58;;;;;;;;;;5016219;28;20034;-74
2022/03/08 06:06:31;;;;;;;43.05;22.65;;;;;;;;;;5015877;28;20481;-73
2022/03/08 06:09:00;;;;;;;49.97;25.80;;;;;;;;;;5030941;28;20049;-73
2022/03/08 06:11:29;;;;;;;55.90;28.92;;;;;;;;;;5015957;28;20038;-73
2022/03/08 06:14:23;;;;;;;63.13;27.98;;;;;;;;;;5015693;28;20508;-73
2022/03/08 06:16:51;;;;;;;51.47;27.63;;;;;;;;;;5014648;28;20042;-74
2022/03/08 06:22:41;;;;;;;61.35;29.52;;;;;;;;;;5014327;28;20054;-74
2022/03/08 06:25:34;;;;;;;51.85;26.63;;;;;;;;;;4998437;28;20502;-79
2022/03/08 06:28:01;;;;;;;51.28;25.70;;;;;;;;;;5030891;28;20069;-74
2022/03/08 06:30:34;;;;;;;42.22;21.20;;;;;;;;;;5015536;28;20048;-73
2022/03/08 06:33:12;;;;;;;53.35;27.23;;;;;;;;;;5015907;28;20069;-73
2022/03/08 06:35:40;;;;;;;47.80;23.95;;;;;;;;;;5014201;28;20425;-73
2022/03/08 06:38:11;;;;;;;39.88;23.10;;;;;;;;;;5014419;28;20049;-73
2022/03/08 06:40:39;;;;;;;47.92;26.40;;;;;;;;;;5015454;28;20037;-73
2022/03/08 06:43:08;;;;;;;45.50;24.45;;;;;;;;;;5030956;28;20049;-72
2022/03/08 06:45:43;;;;;;;48.53;26.45;;;;;;;;;;5014203;28;20054;-73
2022/03/08 06:48:11;;;;;;;51.85;26.55;;;;;;;;;;5015292;28;20073;-73
2022/03/08 06:50:40;;;;;;;55.55;27.52;;;;;;;;;;5013726;28;20137;-73
2022/03/08 06:53:08;;;;;;;94.22;30.48;;;;;;;;;;5015070;28;20046;-72
2022/03/08 06:55:36;;;;;;;77.15;28.33;;;;;;;;;;5014030;28;20077;-73
2022/03/08 06:58:05;;;;;;;91.50;30.02;;;;;;;;;;5015364;28;20048;-73
2022/03/08 07:00:42;;;;;;;73.20;29.50;;;;;;;;;;5014501;28;20042;-74
2022/03/08 07:03:34;;;;;;;54.22;25.33;;;;;;;;;;5014977;28;20045;-72
2022/03/08 07:06:09;;;;;;;49.35;25.02;;;;;;;;;;5015056;28;20042;-72
2022/03/08 07:08:43;;;;;;;40.92;21.52;;;;;;;;;;5013826;28;20057;-73
2022/03/08 07:11:11;;;;;;;45.23;24.10;;;;;;;;;;5015155;28;20501;-72
2022/03/08 07:13:40;;;;;;;51.30;26.10;;;;;;;;;;5014762;28;20272;-73
2022/03/08 07:16:10;;;;;;;40.67;21.23;;;;;;;;;;5013329;28;20041;-73
2022/03/08 07:18:41;;;;;;;47.35;25.33;;;;;;;;;;5014635;28;20124;-73
2022/03/08 07:21:08;;;;;;;43.03;21.27;;;;;;;;;;5014517;28;20128;-73
2022/03/08 07:24:03;;;;;;;43.60;22.77;;;;;;;;;;5013256;28;20093;-73
2022/03/08 07:26:34;;;;;;;43.67;23.05;;;;;;;;;;5013578;28;20065;-73
2022/03/08 07:29:05;;;;;;;39.60;22.15;;;;;;;;;;5013742;28;20046;-73
2022/03/08 07:31:33;;;;;;;45.28;24.80;;;;;;;;;;5013295;28;20069;-73
2022/03/08 07:34:04;;;;;;;39.03;21.38;;;;;;;;;;5013360;28;20057;-73
2022/03/08 07:36:34;;;;;;;49.28;26.17;;;;;;;;;;5013205;28;20052;-73
2022/03/08 07:39:06;;;;;;;45.30;25.00;;;;;;;;;;5013179;28;20073;-74
2022/03/08 07:41:34;;;;;;;43.55;26.50;;;;;;;;;;5014535;28;20121;-74
2022/03/08 07:44:03;;;;;;;39.13;22.90;;;;;;;;;;5012955;28;20042;-73
2022/03/08 07:46:39;;;;;;;36.03;20.17;;;;;;;;;;5014053;28;20038;-73
2022/03/08 07:49:08;;;;;;;45.88;26.48;;;;;;;;;;5014332;28;20092;-74
2022/03/08 07:51:53;;;;;;;43.78;24.73;;;;;;;;;;5014293;28;20045;-74
2022/03/08 07:54:21;;;;;;;44.22;25.85;;;;;;;;;;5012783;28;20046;-74
2022/03/08 07:56:53;;;;;;;38.00;23.98;;;;;;;;;;5013943;28;20038;-73
2022/03/08 07:59:26;;;;;;;45.45;23.35;;;;;;;;;;5014272;28;20073;-73
2022/03/08 08:01:55;;;;;;;42.88;23.67;;;;;;;;;;5012833;28;20080;-74
2022/03/08 08:04:26;;;;;;;36.38;22.17;;;;;;;;;;5012486;28;20404;-73
2022/03/08 08:07:20;;;;;;;35.55;20.65;;;;;;;;;;5014060;28;20070;-74
2022/03/08 08:09:49;;;;;;;40.70;23.30;;;;;;;;;;5014123;28;20491;-74
2022/03/08 08:12:42;;;;;;;41.80;23.67;;;;;;;;;;5013054;28;20041;-74
2022/03/08 08:15:09;;;;;;;34.97;19.13;;;;;;;;;;5012343;28;20046;-74
2022/03/08 08:17:37;;;;;;;41.38;24.90;;;;;;;;;;5013597;28;20408;-74
2022/03/08 08:20:10;;;;;;;40.28;23.77;;;;;;;;;;5012367;28;20046;-74
2022/03/08 08:22:37;;;;;;;42.33;23.40;;;;;;;;;;5012321;28;20104;-74
2022/03/08 08:25:06;;;;;;;44.65;25.02;;;;;;;;;;5012359;28;20088;-74
2022/03/08 08:27:37;;;;;;;42.78;24.42;;;;;;;;;;5013573;28;20042;-74
2022/03/08 08:30:10;;;;;;;40.13;24.15;;;;;;;;;;5013568;28;20433;-74
2022/03/08 08:32:38;;;;;;;37.10;19.80;;;;;;;;;;5012726;28;20370;-74
2022/03/08 08:35:11;;;;;;;44.47;25.58;;;;;;;;;;5012532;28;20038;-74
2022/03/08 08:37:39;;;;;;;40.33;25.38;;;;;;;;;;5013405;28;20078;-74
2022/03/08 08:40:09;;;;;;;43.08;26.45;;;;;;;;;;5013498;28;20045;-74
2022/03/08 08:42:41;;;;;;;49.58;28.60;;;;;;;;;;5012864;28;20152;-74
2022/03/08 08:45:10;;;;;;;44.40;26.55;;;;;;;;;;5013472;28;20462;-74
2022/03/08 08:47:37;;;;;;;39.03;21.98;;;;;;;;;;5011889;28;20080;-74
2022/03/08 08:50:10;;;;;;;43.00;23.50;;;;;;;;;;5012403;28;20044;-74
2022/03/08 08:52:38;;;;;;;37.03;20.52;;;;;;;;;;5011942;28;20038;-74
2022/03/08 08:55:09;;;;;;;40.50;25.10;;;;;;;;;;5012069;28;20056;-74
2022/03/08 08:57:41;;;;;;;33.28;18.95;;;;;;;;;;5028514;28;20046;-74
2022/03/08 09:00:10;;;;;;;40.65;23.17;;;;;;;;;;5013481;28;20396;-74
2022/03/08 09:02:42;;;;;;;36.30;20.50;;;;;;;;;;5012073;28;20405;-74
2022/03/08 09:05:15;;;;;;;43.58;22.73;;;;;;;;;;5012061;28;20412;-73
2022/03/08 09:07:43;;;;;;;44.00;26.27;;;;;;;;;;5013199;28;20066;-74
2022/03/08 09:10:15;;;;;;;43.58;25.83;;;;;;;;;;5011597;28;20080;-74
2022/03/08 09:12:51;;;;;;;47.80;29.13;;;;;;;;;;5013163;28;20050;-74
2022/03/08 09:15:21;;;;;;;44.13;24.58;;;;;;;;;;5012089;28;20453;-74
2022/03/08 09:17:50;;;;;;;36.88;21.25;;;;;;;;;;5011809;28;20072;-74
2022/03/08 09:20:26;;;;;;;41.97;23.88;;;;;;;;;;5011736;28;20061;-74
2022/03/08 09:22:55;;;;;;;49.13;28.10;;;;;;;;;;5011637;28;20104;-74
2022/03/08 09:25:27;;;;;;;41.88;23.27;;;;;;;;;;5016621;28;20129;-74
2022/03/08 09:28:02;;;;;;;39.53;21.35;;;;;;;;;;5016007;28;20050;-74
2022/03/08 09:30:54;;;;;;;43.15;26.25;;;;;;;;;;5016802;28;20068;-73
2022/03/08 09:33:23;;;;;;;40.65;23.48;;;;;;;;;;5015232;28;20121;-74
2022/03/08 09:35:54;;;;;;;46.42;27.08;;;;;;;;;;5016556;28;20397;-74
2022/03/08 09:38:26;;;;;;;37.35;21.45;;;;;;;;;;4999246;28;20052;-74
2022/03/08 09:40:56;;;;;;;45.42;25.73;;;;;;;;;;5015397;28;20560;-73
2022/03/08 09:43:26;;;;;;;45.65;26.65;;;;;;;;;;5016303;28;20034;-74
2022/03/08 09:45:59;;;;;;;48.88;27.02;;;;;;;;;;5016609;28;20053;-74
2022/03/08 09:48:26;;;;;;;49.03;25.92;;;;;;;;;;5016441;28;20076;-73
2022/03/08 09:51:19;;;;;;;56.70;33.28;;;;;;;;;;5015532;28;20065;-74
2022/03/08 09:54:13;;;;;;;46.15;27.30;;;;;;;;;;5005961;28;20054;-74
2022/03/08 09:56:46;;;;;;;46.50;24.30;;;;;;;;;;4996570;28;20129;-74
2022/03/08 09:59:20;;;;;;;39.63;19.50;;;;;;;;;;4997142;28;20048;-74
2022/03/08 10:01:49;;;;;;;49.17;24.42;;;;;;;;;;4995316;28;20137;-73
2022/03/08 10:04:17;;;;;;;42.72;24.70;;;;;;;;;;4996469;28;20046;-73
2022/03/08 10:07:00;;;;;;;43.67;23.33;;;;;;;;;;4996452;28;20057;-73
2022/03/08 10:09:28;;;;;;;40.75;24.60;;;;;;;;;;4994998;28;20073;-74
2022/03/08 10:11:57;;;;;;;45.00;26.90;;;;;;;;;;4995244;28;20077;-74
2022/03/08 10:14:38;;;;;;;41.72;26.02;;;;;;;;;;4995153;28;20038;-73
2022/03/08 10:17:09;;;;;;;37.83;22.38;;;;;;;;;;4996801;28;20385;-73
2022/03/08 10:19:55;;;;;;;32.63;20.02;;;;;;;;;;4996102;28;20042;-73
2022/03/08 10:22:30;;;;;;;55.95;28.83;;;;;;;;;;4995887;28;20050;-73
2022/03/08 10:25:04;;;;;;;;;;;;;;;;;;4996624;28;20038;-74
2022/03/08 10:27:34;;;;;;;58.78;26.05;;;;;;;;;;4994920;28;19921;-74
2022/03/08 10:30:04;;;;;;;44.08;20.25;;;;;;;;;;4994566;28;20081;-72
2022/03/08 10:32:56;;;;;;;38.97;17.42;;;;;;;;;;4994629;28;20034;-73
2022/03/08 10:35:31;;;;;;;52.20;25.52;;;;;;;;;;4995637;28;20046;-72
2022/03/08 10:38:04;;;;;;;50.83;25.20;;;;;;;;;;4995919;28;20046;-72
2022/03/08 10:40:36;;;;;;;37.75;22.20;;;;;;;;;;4994381;28;20141;-72
2022/03/08 10:43:14;;;;;;;46.63;24.67;;;;;;;;;;4995830;28;20395;-72
2022/03/08 10:45:46;;;;;;;40.20;23.75;;;;;;;;;;4994561;28;20138;-72
2022/03/08 10:48:18;;;;;;;44.92;25.90;;;;;;;;;;4995810;28;20042;-72
2022/03/08 10:50:49;;;;;;;41.17;22.88;;;;;;;;;;4994267;28;20042;-72
2022/03/08 10:53:25;;;;;;;42.47;23.83;;;;;;;;;;4994736;28;20246;-72
2022/03/08 10:55:55;;;;;;;36.83;22.33;;;;;;;;;;4994305;28;20049;-72
2022/03/08 10:58:26;;;;;;;33.30;18.92;;;;;;;;;;4994268;28;20489;-73
2022/03/08 11:01:21;;;;;;;40.72;23.52;;;;;;;;;;4994582;28;20496;-72
2022/03/08 11:03:56;;;;;;;40.67;23.75;;;;;;;;;;4995541;28;20500;-72
2022/03/08 11:06:27;;;;;;;38.55;22.67;;;;;;;;;;4993824;28;20137;-73
2022/03/08 11:08:58;;;;;;;39.45;22.33;;;;;;;;;;4995510;28;20046;-73
2022/03/08 11:11:31;;;;;;;35.95;22.17;;;;;;;;;;4995251;28;20100;-72
2022/03/08 11:14:03;;;;;;;37.88;22.67;;;;;;;;;;4995393;28;20046;-73
2022/03/08 11:16:35;;;;;;;38.92;23.08;;;;;;;;;;5010049;28;20074;-72
2022/03/08 11:19:05;;;;;;;33.92;19.98;;;;;;;;;;4995233;28;20039;-72
2022/03/08 11:21:33;;;;;;;72.78;40.95;;;;;;;;;;4977302;28;20050;-72
2022/03/08 11:24:25;;;;;;;39.25;23.85;;;;;;;;;;4995022;28;20043;-73
2022/03/08 11:26:58;;;;;;;36.38;22.75;;;;;;;;;;4994106;28;20050;-73
2022/03/08 11:29:26;;;;;;;45.70;27.70;;;;;;;;;;5010122;28;20576;-72
2022/03/08 11:31:55;;;;;;;33.13;19.70;;;;;;;;;;4995037;28;20041;-73
2022/03/08 11:34:36;;;;;;;34.70;22.25;;;;;;;;;;4993847;28;20145;-72
2022/03/08 11:37:08;;;;;;;33.50;20.85;;;;;;;;;;4995464;28;20421;-72
2022/03/08 11:39:39;;;;;;;40.15;23.48;;;;;;;;;;5009880;28;20069;-72
2022/03/08 11:42:18;;;;;;;36.78;21.88;;;;;;;;;;4994708;28;20042;-72
2022/03/08 11:44:58;;;;;;;35.92;20.55;;;;;;;;;;4995455;28;20436;-72
2022/03/08 11:47:38;;;;;;;31.80;20.55;;;;;;;;;;5008978;28;20081;-73
2022/03/08 11:50:29;;;;;;;31.05;19.13;;;;;;;;;;4995036;28;20485;-73
2022/03/08 11:53:06;;;;;;;34.55;22.17;;;;;;;;;;4993461;28;20382;-73
2022/03/08 11:55:38;;;;;;;36.35;21.00;;;;;;;;;;4994403;28;20048;-73
2022/03/08 11:58:15;;;;;;;36.42;20.70;;;;;;;;;;4977095;28;20046;-73
2022/03/08 12:00:53;;;;;;;37.15;21.73;;;;;;;;;;4994532;28;20374;-73
2022/03/08 12:03:21;;;;;;;33.28;21.45;;;;;;;;;;4994331;28;20038;-73
2022/03/08 12:05:57;;;;;;;29.50;18.63;;;;;;;;;;4994193;28;20046;-73
2022/03/08 12:08:29;;;;;;;30.25;19.63;;;;;;;;;;4993063;28;20046;-72
2022/03/08 12:11:03;;;;;;;37.53;21.95;;;;;;;;;;4994186;28;20035;-74
2022/03/08 12:13:41;;;;;;;33.35;19.70;;;;;;;;;;4992806;28;20054;-74
2022/03/08 12:16:10;;;;;;;34.60;20.13;;;;;;;;;;4993939;28;20038;-74
2022/03/08 12:18:41;;;;;;;35.10;21.38;;;;;;;;;;4993012;28;20049;-74
2022/03/08 12:21:17;;;;;;;44.10;21.42;;;;;;;;;;4993554;28;20066;-74
2022/03/08 12:24:11;;;;;;;44.30;22.10;;;;;;;;;;4993690;28;20042;-74
2022/03/08 12:26:56;;;;;;;34.72;19.08;;;;;;;;;;4994387;28;20471;-74
2022/03/08 12:29:54;;;;;;;26.42;16.58;;;;;;;;;;4993808;28;20046;-74
2022/03/08 12:32:33;;;;;;;48.25;22.33;;;;;;;;;;4994143;28;20038;-74
2022/03/08 12:35:04;;;;;;;31.40;18.35;;;;;;;;;;4994391;28;20436;-74
2022/03/08 12:37:39;;;;;;;30.90;18.55;;;;;;;;;;4993949;28;20045;-74
2022/03/08 12:40:20;;;;;;;36.75;21.13;;;;;;;;;;4976784;28;20066;-74
2022/03/08 12:43:00;;;;;;;31.98;20.45;;;;;;;;;;5008902;28;20046;-74
2022/03/08 12:45:33;;;;;;;29.95;18.45;;;;;;;;;;4992706;28;20046;-74
2022/03/08 12:48:05;;;;;;;34.33;20.45;;;;;;;;;;4992362;28;20497;-74
2022/03/08 12:50:41;;;;;;;36.78;23.15;;;;;;;;;;4992691;28;20523;-74
2022/03/08 12:53:13;;;;;;;33.28;20.08;;;;;;;;;;5008888;28;20556;-74
2022/03/08 12:55:44;;;;;;;28.15;18.90;;;;;;;;;;4993595;28;20051;-74
2022/03/08 12:58:15;;;;;;;32.25;20.88;;;;;;;;;;4978305;28;20050;-74
2022/03/08 13:00:48;;;;;;;31.52;20.73;;;;;;;;;;4996381;28;20074;-74
2022/03/08 13:03:20;;;;;;;30.10;19.55;;;;;;;;;;5012802;28;20070;-74
2022/03/08 13:05:54;;;;;;;31.73;21.38;;;;;;;;;;4996058;28;20051;-74
2022/03/08 13:08:28;;;;;;;34.35;20.55;;;;;;;;;;4997707;28;20047;-74
2022/03/08 13:11:02;;;;;;;30.50;19.77;;;;;;;;;;4996090;28;20141;-74
2022/03/08 13:13:51;;;;;;;28.88;18.73;;;;;;;;;;4997269;28;20497;-74
2022/03/08 13:16:24;;;;;;;31.30;19.90;;;;;;;;;;4997261;28;20066;-74
2022/03/08 13:19:00;;;;;;;34.33;21.65;;;;;;;;;;5012460;28;20077;-74
2022/03/08 13:21:28;;;;;;;;;;;;;;;;;;5012490;28;20088;-74
2022/03/08 13:24:23;;;;;;;36.45;23.42;;;;;;;;;;4995822;28;19929;-74
2022/03/08 13:27:15;;;;;;;31.25;21.15;;;;;;;;;;4997157;28;20521;-74
2022/03/08 13:29:49;;;;;;;31.15;19.50;;;;;;;;;;4997420;28;20034;-74
2022/03/08 13:32:16;;;;;;;33.25;20.13;;;;;;;;;;4997147;28;20038;-74
2022/03/08 13:35:00;;;;;;;26.48;18.25;;;;;;;;;;4995813;28;20038;-74
2022/03/08 13:37:51;;;;;;;30.30;19.30;;;;;;;;;;4996297;28;20141;-74
2022/03/08 13:40:28;;;;;;;29.98;19.25;;;;;;;;;;4996828;28;20056;-74
2022/03/08 13:43:03;;;;;;;29.00;18.33;;;;;;;;;;4996946;28;20112;-74
2022/03/08 13:45:53;;;;;;;26.38;17.63;;;;;;;;;;5011767;28;20053;-74
2022/03/08 13:48:26;;;;;;;32.63;19.65;;;;;;;;;;4995286;28;20138;-74
2022/03/08 13:51:01;;;;;;;30.70;21.75;;;;;;;;;;4996876;28;20077;-73
2022/03/08 13:53:34;;;;;;;30.92;18.52;;;;;;;;;;4997209;28;20047;-73
2022/03/08 13:56:05;;;;;;;31.65;19.00;;;;;;;;;;4996849;28;20069;-73
2022/03/08 13:58:43;;;;;;;34.72;21.10;;;;;;;;;;4995867;28;20050;-73
2022/03/08 14:01:23;;;;;;;30.95;19.70;;;;;;;;;;4996669;28;20128;-73
2022/03/08 14:03:59;;;;;;;29.55;18.52;;;;;;;;;;4997007;28;20034;-73
2022/03/08 14:06:36;;;;;;;30.00;19.23;;;;;;;;;;4996742;28;20046;-74
2022/03/08 14:09:06;;;;;;;;;;;;;;;;;;4996101;28;20042;-72
2022/03/08 14:11:39;;;;;;;34.42;20.27;;;;;;;;;;4995187;28;19969;-72
2022/03/08 14:14:20;;;;;;;33.08;20.35;;;;;;;;;;4996451;28;20042;-74
2022/03/08 14:16:48;;;;;;;32.53;19.80;;;;;;;;;;4996471;28;20038;-72
2022/03/08 14:19:18;;;;;;;31.38;19.95;;;;;;;;;;4996308;28;20048;-73
2022/03/08 14:21:52;;;;;;;29.90;18.65;;;;;;;;;;4996247;28;20125;-75
2022/03/08 14:24:23;;;;;;;31.30;19.23;;;;;;;;;;4996669;28;20069;-74
2022/03/08 14:27:00;;;;;;;29.83;18.15;;;;;;;;;;4996048;28;20046;-73
2022/03/08 14:29:36;;;;;;;31.05;19.88;;;;;;;;;;4996152;28;20046;-73
2022/03/08 14:32:08;;;;;;;31.38;20.02;;;;;;;;;;4996545;28;20080;-73
2022/03/08 14:34:37;;;;;;;32.20;20.42;;;;;;;;;;4996269;28;20069;-74
2022/03/08 14:37:13;;;;;;;32.58;19.13;;;;;;;;;;4996006;28;20066;-73
2022/03/08 14:39:49;;;;;;;34.40;19.80;;;;;;;;;;4995159;28;20054;-73
2022/03/08 14:42:18;;;;;;;;;;;;;;;;;;5015262;28;20078;-74
2022/03/08 14:45:11;;;;;;;33.80;19.55;;;;;;;;;;5014293;28;20380;-72
2022/03/08 14:47:44;;;;;;;53.03;31.05;;;;;;;;;;5030559;28;20398;-72
2022/03/08 14:50:15;;;;;;;54.83;32.25;;;;;;;;;;5013372;28;20073;-73
2022/03/08 14:52:48;;;;;;;49.92;31.05;;;;;;;;;;5017352;28;20074;-73
2022/03/08 14:55:19;;;;;;;40.58;24.90;;;;;;;;;;5017016;28;20096;-73
2022/03/08 14:57:56;;;;;;;43.42;24.92;;;;;;;;;;5015850;28;20046;-73
2022/03/08 15:00:27;;;;;;;35.70;23.35;;;;;;;;;;5015247;28;20045;-73
2022/03/08 15:03:00;;;;;;;34.50;20.80;;;;;;;;;;5014683;28;20045;-72
2022/03/08 15:05:36;;;;;;;37.80;23.27;;;;;;;;;;5014172;28;20060;-72
2022/03/08 15:08:04;;;;;;;35.50;21.10;;;;;;;;;;5006118;28;20047;-74
2022/03/08 15:10:34;;;;;;;34.58;22.23;;;;;;;;;;4997494;28;20121;-74